Time;durP1;ratioP1;P1;durP2;ratioP2;P2;SDS_P1;SDS_P2;PMS_P1;PMS_P2;Temp;Humidity;BMP_temperature;BMP_pressure;BME280_temperature;BME280_humidity;BME280_pressure;Samples;Min_cycle;Max_cycle;Signal;HPM_P1;HPM_P2
2021/12/15 00:01:25;;;;;;;6.53;3.60;;;;;;;;;;5012919;28;20387;-76
2021/12/15 00:03:51;;;;;;;6.80;3.50;;;;;;;;;;5008805;28;20128;-76
2021/12/15 00:06:19;;;;;;;5.38;3.58;;;;;;;;;;5012703;28;20014;-73
2021/12/15 00:08:47;;;;;;;6.00;3.47;;;;;;;;;;5013543;28;20026;-75
2021/12/15 00:11:13;;;;;;;4.72;3.13;;;;;;;;;;5012607;28;20025;-75
2021/12/15 00:13:40;;;;;;;6.40;3.30;;;;;;;;;;5013265;28;20486;-74
2021/12/15 00:16:07;;;;;;;6.78;3.10;;;;;;;;;;5000144;28;20034;-74
2021/12/15 00:18:33;;;;;;;9.73;3.45;;;;;;;;;;5013322;28;20026;-75
2021/12/15 00:20:59;;;;;;;4.70;3.33;;;;;;;;;;5013308;28;20467;-75
2021/12/15 00:23:25;;;;;;;7.10;3.70;;;;;;;;;;5012154;28;20036;-75
2021/12/15 00:25:51;;;;;;;3.97;2.88;;;;;;;;;;5010429;28;20030;-73
2021/12/15 00:28:17;;;;;;;5.13;2.90;;;;;;;;;;5003136;28;20033;-74
2021/12/15 00:30:44;;;;;;;4.65;3.22;;;;;;;;;;5007882;28;20030;-74
2021/12/15 00:33:10;;;;;;;5.80;2.80;;;;;;;;;;5000276;28;20030;-74
2021/12/15 00:35:37;;;;;;;6.47;3.83;;;;;;;;;;5001929;28;20053;-74
2021/12/15 00:38:04;;;;;;;4.50;2.95;;;;;;;;;;5002167;28;20468;-66
2021/12/15 00:40:30;;;;;;;6.78;2.70;;;;;;;;;;4999293;28;20038;-72
2021/12/15 00:42:57;;;;;;;3.50;2.70;;;;;;;;;;5002122;28;20033;-75
2021/12/15 00:45:23;;;;;;;4.38;2.53;;;;;;;;;;5004513;28;20026;-76
2021/12/15 00:47:49;;;;;;;4.80;3.35;;;;;;;;;;5003216;28;20026;-75
2021/12/15 00:50:17;;;;;;;5.47;3.55;;;;;;;;;;5005248;28;20057;-76
2021/12/15 00:52:44;;;;;;;3.67;2.80;;;;;;;;;;5003815;28;20101;-75
2021/12/15 00:55:13;;;;;;;5.22;2.90;;;;;;;;;;5001703;28;20125;-73
2021/12/15 00:57:39;;;;;;;4.47;2.83;;;;;;;;;;5004227;28;20407;-76
2021/12/15 01:00:06;;;;;;;4.07;2.92;;;;;;;;;;5003013;28;20105;-73
2021/12/15 01:02:33;;;;;;;6.13;3.00;;;;;;;;;;5002822;28;20042;-72
2021/12/15 01:04:59;;;;;;;5.07;2.95;;;;;;;;;;5005929;28;20046;-73
2021/12/15 01:07:26;;;;;;;6.03;3.28;;;;;;;;;;5004006;28;20084;-71
2021/12/15 01:09:55;;;;;;;5.45;3.30;;;;;;;;;;5002353;28;20101;-74
2021/12/15 01:20:38;;;;;;;3.72;2.83;;;;;;;;;;4996777;28;20037;-73
2021/12/15 01:23:07;;;;;;;3.42;2.40;;;;;;;;;;5001124;28;20020;-66
2021/12/15 01:25:36;;;;;;;7.25;3.33;;;;;;;;;;5002057;28;20490;-74
2021/12/15 01:28:02;;;;;;;4.85;2.63;;;;;;;;;;5001577;28;20034;-66
2021/12/15 01:30:30;;;;;;;4.07;2.92;;;;;;;;;;4999707;28;20026;-75
2021/12/15 01:32:58;;;;;;;3.78;2.95;;;;;;;;;;5001505;28;20033;-75
2021/12/15 01:35:24;;;;;;;6.28;3.15;;;;;;;;;;4999864;28;20018;-73
2021/12/15 01:37:51;;;;;;;4.28;3.33;;;;;;;;;;5002583;28;20419;-73
2021/12/15 01:40:28;;;;;;;4.25;2.88;;;;;;;;;;5000560;28;20022;-74
2021/12/15 01:42:54;;;;;;;3.63;2.55;;;;;;;;;;4999801;28;20018;-75
2021/12/15 01:48:07;;;;;;;4.68;3.13;;;;;;;;;;5011293;28;20088;-64
2021/12/15 01:50:33;;;;;;;5.13;3.17;;;;;;;;;;5008008;28;20029;-74
2021/12/15 01:53:00;;;;;;;4.80;2.92;;;;;;;;;;5001334;28;20489;-73
2021/12/15 01:55:27;;;;;;;4.05;3.10;;;;;;;;;;5000475;28;20034;-71
2021/12/15 01:57:53;;;;;;;4.50;3.13;;;;;;;;;;4999575;28;20554;-73
2021/12/15 02:00:34;;;;;;;4.22;2.90;;;;;;;;;;5000684;28;20014;-68
2021/12/15 02:03:00;;;;;;;4.78;3.00;;;;;;;;;;5000455;28;20022;-74
2021/12/15 02:05:26;;;;;;;3.70;2.72;;;;;;;;;;4999631;28;20030;-73
2021/12/15 02:07:52;;;;;;;4.53;2.72;;;;;;;;;;5004236;28;20030;-72
2021/12/15 02:10:21;;;;;;;4.43;3.53;;;;;;;;;;5002945;28;20558;-72
2021/12/15 02:12:47;;;;;;;3.00;2.70;;;;;;;;;;5001154;28;20621;-72
2021/12/15 02:15:15;;;;;;;7.32;3.55;;;;;;;;;;5000884;28;20061;-73
2021/12/15 02:17:41;;;;;;;4.63;2.97;;;;;;;;;;5001113;28;20463;-73
2021/12/15 02:20:08;;;;;;;3.78;2.65;;;;;;;;;;5000240;28;20037;-72
2021/12/15 02:22:35;;;;;;;3.53;2.75;;;;;;;;;;5001941;28;20021;-73
2021/12/15 02:25:02;;;;;;;4.45;2.78;;;;;;;;;;4996346;28;20097;-73
2021/12/15 02:27:34;;;;;;;3.97;2.72;;;;;;;;;;5011150;28;20081;-73
2021/12/15 02:30:15;;;;;;;5.43;3.17;;;;;;;;;;5011888;28;20125;-73
2021/12/15 02:32:57;;;;;;;4.70;2.78;;;;;;;;;;5011586;28;20026;-73
2021/12/15 02:38:08;;;;;;;4.38;2.80;;;;;;;;;;5014588;28;20033;-72
2021/12/15 02:40:34;;;;;;;3.45;2.70;;;;;;;;;;5015232;28;20029;-73
2021/12/15 02:43:00;;;;;;;3.55;3.00;;;;;;;;;;5015383;28;20036;-73
2021/12/15 02:45:26;;;;;;;3.60;2.90;;;;;;;;;;5014592;28;20124;-73
2021/12/15 02:47:53;;;;;;;3.60;2.40;;;;;;;;;;5015331;28;20022;-72
2021/12/15 02:50:23;;;;;;;4.40;2.72;;;;;;;;;;5014160;28;20083;-72
2021/12/15 02:52:49;;;;;;;4.43;3.35;;;;;;;;;;5002728;28;20041;-73
2021/12/15 02:55:16;;;;;;;4.00;2.95;;;;;;;;;;5014023;28;20029;-73
2021/12/15 02:57:42;;;;;;;3.10;2.58;;;;;;;;;;5014707;28;20495;-73
2021/12/15 03:00:22;;;;;;;7.38;3.25;;;;;;;;;;5014337;28;20041;-72
2021/12/15 03:03:15;;;;;;;3.80;2.63;;;;;;;;;;5005590;28;20018;-73
2021/12/15 03:05:42;;;;;;;3.50;2.85;;;;;;;;;;5008136;28;20049;-72
2021/12/15 03:08:19;;;;;;;3.85;2.22;;;;;;;;;;5014291;28;20340;-73
2021/12/15 03:16:17;;;;;;;4.43;2.97;;;;;;;;;;5013336;28;20052;-72
2021/12/15 03:18:43;;;;;;;3.28;2.75;;;;;;;;;;5014557;28;20029;-73
2021/12/15 03:21:11;;;;;;;3.17;2.70;;;;;;;;;;5013152;28;20426;-73
2021/12/15 03:23:48;;;;;;;4.57;3.17;;;;;;;;;;5011141;28;20105;-73
2021/12/15 03:26:16;;;;;;;3.72;2.60;;;;;;;;;;5014033;28;20026;-73
2021/12/15 03:34:24;;;;;;;2.90;2.33;;;;;;;;;;5013877;28;20040;-73
2021/12/15 03:37:37;;;;;;;4.43;2.65;;;;;;;;;;5014275;28;20022;-74
2021/12/15 03:39:45;;;;;;;3.35;2.90;;;;;;;;;;5006677;28;20061;-74
2021/12/15 03:42:12;;;;;;;3.58;2.83;;;;;;;;;;5013409;28;20464;-73
2021/12/15 03:44:39;;;;;;;4.13;2.28;;;;;;;;;;5014304;28;20029;-73
2021/12/15 03:47:10;;;;;;;2.72;2.25;;;;;;;;;;5013000;28;20557;-66
2021/12/15 03:49:36;;;;;;;2.92;2.25;;;;;;;;;;5014199;28;20057;-73
2021/12/15 03:52:04;;;;;;;3.80;2.45;;;;;;;;;;5013909;28;20037;-74
2021/12/15 03:54:30;;;;;;;3.85;2.63;;;;;;;;;;5013172;28;20097;-73
2021/12/15 03:56:56;;;;;;;2.92;2.45;;;;;;;;;;5013594;28;20112;-72
2021/12/15 03:59:24;;;;;;;4.18;2.75;;;;;;;;;;5013569;28;20038;-73
2021/12/15 04:01:50;;;;;;;3.30;2.22;;;;;;;;;;5013917;28;20022;-73
2021/12/15 04:04:16;;;;;;;4.97;3.15;;;;;;;;;;5013145;28;20034;-74
2021/12/15 04:06:42;;;;;;;2.80;2.42;;;;;;;;;;5013714;28;20080;-72
2021/12/15 04:09:10;;;;;;;3.55;2.50;;;;;;;;;;5013242;28;20079;-65
2021/12/15 04:11:37;;;;;;;2.78;2.35;;;;;;;;;;5013791;28;20108;-73
2021/12/15 04:14:04;;;;;;;3.05;2.42;;;;;;;;;;5013051;28;20064;-73
2021/12/15 04:18:56;;;;;;;3.45;2.70;;;;;;;;;;5013664;28;20379;-73
2021/12/15 04:21:22;;;;;;;3.17;2.45;;;;;;;;;;5012650;28;20021;-73
2021/12/15 04:23:50;;;;;;;2.50;2.00;;;;;;;;;;5013823;28;20026;-73
2021/12/15 04:26:16;;;;;;;2.83;2.30;;;;;;;;;;5012306;28;20089;-74
2021/12/15 04:28:42;;;;;;;3.05;2.47;;;;;;;;;;5012718;28;20026;-72
2021/12/15 04:31:09;;;;;;;2.50;2.00;;;;;;;;;;5012579;28;20036;-65
2021/12/15 04:33:38;;;;;;;3.70;2.58;;;;;;;;;;5013173;28;20032;-73
2021/12/15 04:36:06;;;;;;;3.38;2.55;;;;;;;;;;5013464;28;20103;-73
2021/12/15 04:38:34;;;;;;;2.30;2.00;;;;;;;;;;5012840;28;20025;-74
2021/12/15 04:41:01;;;;;;;2.47;1.98;;;;;;;;;;5013296;28;20053;-73
2021/12/15 04:43:32;;;;;;;2.50;2.03;;;;;;;;;;5012540;28;20022;-73
2021/12/15 04:45:58;;;;;;;4.43;3.08;;;;;;;;;;5013272;28;20061;-74
2021/12/15 04:48:24;;;;;;;3.53;2.50;;;;;;;;;;5012492;28;20133;-73
2021/12/15 04:50:51;;;;;;;2.58;2.08;;;;;;;;;;5013154;28;20022;-73
2021/12/15 04:53:17;;;;;;;2.67;1.77;;;;;;;;;;5012134;28;20029;-72
2021/12/15 04:55:43;;;;;;;2.65;2.20;;;;;;;;;;5012989;28;20030;-73
2021/12/15 04:58:11;;;;;;;3.10;2.67;;;;;;;;;;5011451;28;20081;-66
2021/12/15 05:00:46;;;;;;;2.42;2.03;;;;;;;;;;5012857;28;20034;-73
2021/12/15 05:03:12;;;;;;;2.38;1.95;;;;;;;;;;5012296;28;20030;-72
2021/12/15 05:05:39;;;;;;;2.42;2.15;;;;;;;;;;5012796;28;20034;-73
2021/12/15 05:08:05;;;;;;;3.47;2.35;;;;;;;;;;5012707;28;20375;-73
2021/12/15 05:10:31;;;;;;;3.03;1.98;;;;;;;;;;5012045;28;20030;-74
2021/12/15 05:12:57;;;;;;;3.03;2.05;;;;;;;;;;5012723;28;20025;-72
2021/12/15 05:15:24;;;;;;;2.85;1.90;;;;;;;;;;5011964;28;20084;-73
2021/12/15 05:17:50;;;;;;;2.85;2.42;;;;;;;;;;5012549;28;20026;-73
2021/12/15 05:20:19;;;;;;;2.38;2.10;;;;;;;;;;5011898;28;20464;-75
2021/12/15 05:22:45;;;;;;;2.83;2.20;;;;;;;;;;5012647;28;20018;-73
2021/12/15 05:25:11;;;;;;;2.33;1.85;;;;;;;;;;5011780;28;20028;-65
2021/12/15 05:27:38;;;;;;;2.75;2.30;;;;;;;;;;5012097;28;20034;-72
2021/12/15 05:30:06;;;;;;;2.47;1.90;;;;;;;;;;5012107;28;20053;-70
2021/12/15 05:32:32;;;;;;;2.55;2.13;;;;;;;;;;5000604;28;20049;-73
2021/12/15 05:34:59;;;;;;;3.03;1.80;;;;;;;;;;5012425;28;20059;-73
2021/12/15 05:37:25;;;;;;;2.33;1.70;;;;;;;;;;4991963;28;20034;-72
2021/12/15 05:39:52;;;;;;;3.13;2.25;;;;;;;;;;4992667;28;20159;-74
2021/12/15 05:42:19;;;;;;;2.85;2.00;;;;;;;;;;4991883;28;20026;-73
2021/12/15 05:44:46;;;;;;;3.22;1.98;;;;;;;;;;4992514;28;20397;-73
2021/12/15 05:47:12;;;;;;;2.67;2.00;;;;;;;;;;4992203;28;20034;-65
2021/12/15 05:49:39;;;;;;;2.53;1.52;;;;;;;;;;4992325;28;20037;-71
2021/12/15 05:52:05;;;;;;;3.08;2.03;;;;;;;;;;4992767;28;20033;-73
2021/12/15 05:54:31;;;;;;;2.22;1.80;;;;;;;;;;4991918;28;20607;-74
2021/12/15 05:56:57;;;;;;;2.90;1.80;;;;;;;;;;4992274;28;20140;-71
2021/12/15 05:59:23;;;;;;;2.53;2.33;;;;;;;;;;4991186;28;20583;-72
2021/12/15 06:01:50;;;;;;;2.40;2.03;;;;;;;;;;4992508;28;20106;-73
2021/12/15 06:04:16;;;;;;;2.53;1.65;;;;;;;;;;4993511;28;20111;-73
2021/12/15 06:06:42;;;;;;;2.08;1.75;;;;;;;;;;5012213;28;20045;-74
2021/12/15 06:09:09;;;;;;;2.45;2.00;;;;;;;;;;5011706;28;20483;-72
2021/12/15 06:11:36;;;;;;;1.98;1.63;;;;;;;;;;5015748;28;20041;-73
2021/12/15 06:14:02;;;;;;;2.90;1.80;;;;;;;;;;5015712;28;20029;-66
2021/12/15 06:16:28;;;;;;;2.10;1.80;;;;;;;;;;5015766;28;20023;-73
2021/12/15 06:18:54;;;;;;;4.70;2.00;;;;;;;;;;5015731;28;20108;-69
2021/12/15 06:21:22;;;;;;;2.28;1.70;;;;;;;;;;5015582;28;20037;-73
2021/12/15 06:23:49;;;;;;;1.77;1.60;;;;;;;;;;5015705;28;20030;-73
2021/12/15 06:26:15;;;;;;;3.08;1.52;;;;;;;;;;5014847;28;20108;-71
2021/12/15 06:28:42;;;;;;;1.98;1.73;;;;;;;;;;5015652;28;20038;-73
2021/12/15 06:31:10;;;;;;;1.90;1.70;;;;;;;;;;5015839;28;20037;-72
2021/12/15 06:33:38;;;;;;;1.75;1.50;;;;;;;;;;5014000;28;20030;-66
2021/12/15 06:36:05;;;;;;;2.97;1.63;;;;;;;;;;5007370;28;20080;-76
2021/12/15 06:38:36;;;;;;;4.45;2.33;;;;;;;;;;5014292;28;20178;-76
2021/12/15 06:41:05;;;;;;;3.90;2.20;;;;;;;;;;5015414;28;20026;-70
2021/12/15 06:43:31;;;;;;;2.67;1.60;;;;;;;;;;5009850;28;20022;-75
2021/12/15 06:59:40;;;;;;;4.68;2.05;;;;;;;;;;4995258;28;20467;-61
2021/12/15 07:02:07;;;;;;;12.43;2.35;;;;;;;;;;4995003;28;20026;-65
2021/12/15 07:04:33;;;;;;;10.35;2.05;;;;;;;;;;5000230;28;20463;-64
2021/12/15 07:06:59;;;;;;;7.43;1.92;;;;;;;;;;5014811;28;20033;-65
2021/12/15 07:09:25;;;;;;;24.45;2.67;;;;;;;;;;5013279;28;20109;-65
2021/12/15 07:11:52;;;;;;;2.95;1.83;;;;;;;;;;5014520;28;20030;-65
2021/12/15 07:14:18;;;;;;;4.78;2.20;;;;;;;;;;5013963;28;20030;-65
2021/12/15 07:16:47;;;;;;;5.05;1.80;;;;;;;;;;5014239;28;20010;-65
2021/12/15 07:19:20;;;;;;;4.63;1.85;;;;;;;;;;5013712;28;20109;-61
2021/12/15 07:24:39;;;;;;;3.22;1.80;;;;;;;;;;5016267;28;20108;-61
2021/12/15 07:27:06;;;;;;;4.63;2.15;;;;;;;;;;5026817;28;20079;-64
2021/12/15 07:29:33;;;;;;;3.78;1.83;;;;;;;;;;5033174;28;20034;-61
2021/12/15 07:32:00;;;;;;;2.90;2.05;;;;;;;;;;5017237;28;20092;-65
2021/12/15 07:34:26;;;;;;;5.47;2.47;;;;;;;;;;5024740;28;20382;-65
2021/12/15 07:36:53;;;;;;;4.00;2.00;;;;;;;;;;5023391;28;20446;-63
2021/12/15 07:39:19;;;;;;;3.45;1.95;;;;;;;;;;5027569;28;20029;-63
2021/12/15 07:41:51;;;;;;;6.13;2.28;;;;;;;;;;5017007;28;20033;-64
2021/12/15 07:44:18;;;;;;;3.10;1.80;;;;;;;;;;5027410;28;20088;-62
2021/12/15 07:46:45;;;;;;;5.45;2.22;;;;;;;;;;5023034;28;20371;-63
2021/12/15 07:49:12;;;;;;;6.30;2.10;;;;;;;;;;5014844;28;20062;-63
2021/12/15 07:51:41;;;;;;;3.22;1.52;;;;;;;;;;5004866;28;20602;-63
2021/12/15 07:54:07;;;;;;;3.42;1.73;;;;;;;;;;5007821;28;20021;-63
2021/12/15 07:56:33;;;;;;;4.50;2.05;;;;;;;;;;5024049;28;20050;-63
2021/12/15 07:58:59;;;;;;;4.32;1.92;;;;;;;;;;5025169;28;20025;-64
2021/12/15 08:01:25;;;;;;;5.22;1.75;;;;;;;;;;5016708;28;20057;-63
2021/12/15 08:03:51;;;;;;;4.85;1.52;;;;;;;;;;5029781;28;20021;-63
2021/12/15 08:06:17;;;;;;;2.67;1.35;;;;;;;;;;5000381;28;20470;-61
2021/12/15 08:08:43;;;;;;;4.70;2.40;;;;;;;;;;5011515;28;20026;-61
2021/12/15 08:11:10;;;;;;;4.28;1.60;;;;;;;;;;5027188;28;20044;-65
2021/12/15 08:13:36;;;;;;;4.82;1.67;;;;;;;;;;5016493;28;20437;-69
2021/12/15 08:16:03;;;;;;;4.82;2.30;;;;;;;;;;5028659;28;20013;-70
2021/12/15 08:18:29;;;;;;;3.17;1.63;;;;;;;;;;5018862;28;20113;-69
2021/12/15 08:20:55;;;;;;;3.72;1.65;;;;;;;;;;5018246;28;20049;-69
2021/12/15 08:23:22;;;;;;;4.15;1.48;;;;;;;;;;5027216;28;20025;-67
2021/12/15 08:25:48;;;;;;;4.40;1.58;;;;;;;;;;4996131;28;20026;-67
2021/12/15 08:28:14;;;;;;;5.65;1.92;;;;;;;;;;4993097;28;20034;-69
2021/12/15 08:30:41;;;;;;;5.05;1.98;;;;;;;;;;4991927;28;20872;-70
2021/12/15 08:33:11;;;;;;;3.20;1.92;;;;;;;;;;4993260;28;20053;-68
2021/12/15 08:35:42;;;;;;;5.45;1.70;;;;;;;;;;4992515;28;20022;-69
2021/12/15 08:38:09;;;;;;;5.40;1.52;;;;;;;;;;5002333;28;20034;-68
2021/12/15 08:40:36;;;;;;;3.45;1.45;;;;;;;;;;5012004;28;20065;-68
2021/12/15 08:43:02;;;;;;;4.60;1.77;;;;;;;;;;5008362;28;20106;-69
2021/12/15 08:45:28;;;;;;;4.10;1.98;;;;;;;;;;5003309;28;20026;-68
2021/12/15 08:47:56;;;;;;;5.20;1.80;;;;;;;;;;5012295;28;20022;-68
2021/12/15 08:50:26;;;;;;;3.65;1.73;;;;;;;;;;5011790;28;20040;-66
2021/12/15 08:52:52;;;;;;;3.67;1.48;;;;;;;;;;5012660;28;20045;-69
2021/12/15 08:55:18;;;;;;;2.70;1.75;;;;;;;;;;5012268;28;20109;-62
2021/12/15 08:57:49;;;;;;;1.73;1.33;;;;;;;;;;5011869;28;20057;-69
2021/12/15 09:00:16;;;;;;;1.88;1.30;;;;;;;;;;5012561;28;20037;-68
2021/12/15 09:02:42;;;;;;;2.95;1.45;;;;;;;;;;5011125;28;20034;-69
2021/12/15 09:05:09;;;;;;;2.50;1.60;;;;;;;;;;5012149;28;20076;-69
2021/12/15 09:07:35;;;;;;;4.03;1.60;;;;;;;;;;5011133;28;20498;-69
2021/12/15 09:10:01;;;;;;;2.42;1.85;;;;;;;;;;5011355;28;20057;-65
2021/12/15 09:12:27;;;;;;;3.80;1.52;;;;;;;;;;5010811;28;20107;-67
2021/12/15 09:14:53;;;;;;;2.40;1.35;;;;;;;;;;5012536;28;20034;-67
2021/12/15 09:17:20;;;;;;;5.55;2.10;;;;;;;;;;5011250;28;20032;-62
2021/12/15 09:19:46;;;;;;;7.13;1.92;;;;;;;;;;5011490;28;20029;-67
2021/12/15 09:22:12;;;;;;;4.32;1.50;;;;;;;;;;5011804;28;20443;-66
2021/12/15 09:24:39;;;;;;;4.90;1.58;;;;;;;;;;5010361;28;20060;-66
2021/12/15 09:27:05;;;;;;;4.38;1.65;;;;;;;;;;5012206;28;20049;-65
2021/12/15 09:29:31;;;;;;;4.00;1.52;;;;;;;;;;5011032;28;20033;-65
2021/12/15 09:31:57;;;;;;;2.80;1.60;;;;;;;;;;5010896;28;20057;-67
2021/12/15 09:34:23;;;;;;;4.10;1.15;;;;;;;;;;5010941;28;20022;-66
2021/12/15 09:36:50;;;;;;;7.72;1.67;;;;;;;;;;5011964;28;20026;-67
2021/12/15 09:39:17;;;;;;;6.25;1.88;;;;;;;;;;5011331;28;20544;-67
2021/12/15 09:41:43;;;;;;;3.30;1.58;;;;;;;;;;5011542;28;20022;-67
2021/12/15 09:44:13;;;;;;;5.93;1.55;;;;;;;;;;5011432;28;20022;-67
2021/12/15 09:47:05;;;;;;;5.55;1.65;;;;;;;;;;5011052;28;20032;-67
2021/12/15 10:03:29;;;;;;;6.53;2.03;;;;;;;;;;5011614;28;20115;-67
2021/12/15 10:19:21;;;;;;;3.92;1.55;;;;;;;;;;5010971;28;20099;-67
2021/12/15 10:22:04;;;;;;;3.08;1.48;;;;;;;;;;5011064;28;20042;-66
2021/12/15 10:24:34;;;;;;;4.28;1.50;;;;;;;;;;5003262;28;20419;-67
2021/12/15 10:27:01;;;;;;;5.10;1.30;;;;;;;;;;5011249;28;20037;-66
2021/12/15 10:29:27;;;;;;;2.40;1.40;;;;;;;;;;5010865;28;20041;-66
2021/12/15 10:32:01;;;;;;;3.65;1.75;;;;;;;;;;5010694;28;20545;-66
2021/12/15 10:34:27;;;;;;;4.05;1.50;;;;;;;;;;5010147;28;20096;-64
2021/12/15 10:36:53;;;;;;;3.17;1.38;;;;;;;;;;5011488;28;20060;-67
2021/12/15 10:39:21;;;;;;;1.90;1.23;;;;;;;;;;5010998;28;20439;-67
2021/12/15 10:41:52;;;;;;;2.20;1.20;;;;;;;;;;5011144;28;20022;-66
2021/12/15 10:44:23;;;;;;;2.72;1.50;;;;;;;;;;5011784;28;20025;-66
2021/12/15 10:46:50;;;;;;;2.30;1.50;;;;;;;;;;5012194;28;20019;-67
2021/12/15 10:49:21;;;;;;;2.33;1.10;;;;;;;;;;5011303;28;20083;-66
2021/12/15 10:51:47;;;;;;;3.25;1.15;;;;;;;;;;5010146;28;20438;-67
2021/12/15 10:54:25;;;;;;;2.15;1.60;;;;;;;;;;5011974;28;20029;-67
2021/12/15 10:56:59;;;;;;;1.75;0.85;;;;;;;;;;5014171;28;20057;-67
2021/12/15 10:59:28;;;;;;;3.08;1.20;;;;;;;;;;5015183;28;20085;-66
2021/12/15 11:02:07;;;;;;;2.08;1.10;;;;;;;;;;5014636;28;20052;-67
2021/12/15 11:04:50;;;;;;;1.98;1.20;;;;;;;;;;5014125;28;20033;-67
2021/12/15 11:07:18;;;;;;;1.40;0.93;;;;;;;;;;5015335;28;20463;-67
2021/12/15 11:09:45;;;;;;;2.53;1.17;;;;;;;;;;5014003;28;20039;-67
2021/12/15 11:12:30;;;;;;;2.05;1.15;;;;;;;;;;5015239;28;20037;-67
2021/12/15 11:15:09;;;;;;;1.80;1.05;;;;;;;;;;5015257;28;20026;-66
2021/12/15 11:17:37;;;;;;;2.28;1.33;;;;;;;;;;5014184;28;20026;-66
2021/12/15 11:20:03;;;;;;;2.00;1.00;;;;;;;;;;5014963;28;20059;-67
2021/12/15 11:22:31;;;;;;;3.67;1.80;;;;;;;;;;5014466;28;20033;-66
2021/12/15 11:24:58;;;;;;;2.40;0.80;;;;;;;;;;5014805;28;20030;-67
2021/12/15 11:27:24;;;;;;;1.65;0.73;;;;;;;;;;5014237;28;20030;-62
2021/12/15 11:29:50;;;;;;;2.45;1.50;;;;;;;;;;5014644;28;20341;-66
2021/12/15 11:32:35;;;;;;;2.88;1.00;;;;;;;;;;5014438;28;20033;-66
2021/12/15 11:35:05;;;;;;;1.88;1.20;;;;;;;;;;5014516;28;20498;-67
2021/12/15 11:37:45;;;;;;;2.13;1.10;;;;;;;;;;5013818;28;20026;-63
2021/12/15 11:40:11;;;;;;;1.70;1.05;;;;;;;;;;5013943;28;20028;-67
2021/12/15 11:42:42;;;;;;;1.88;0.93;;;;;;;;;;5013102;28;20034;-66
2021/12/15 11:45:09;;;;;;;4.57;1.00;;;;;;;;;;5014700;28;20026;-67
2021/12/15 11:47:37;;;;;;;1.65;1.23;;;;;;;;;;5013555;28;20037;-66
2021/12/15 11:50:11;;;;;;;2.25;1.00;;;;;;;;;;5014282;28;20118;-66
2021/12/15 11:52:39;;;;;;;1.42;0.88;;;;;;;;;;5013720;28;20490;-67
2021/12/15 11:55:07;;;;;;;2.40;0.93;;;;;;;;;;5013862;28;20042;-67
2021/12/15 11:57:33;;;;;;;1.30;0.80;;;;;;;;;;5013386;28;20046;-65
2021/12/15 12:00:04;;;;;;;2.40;1.10;;;;;;;;;;5013688;28;20038;-67
2021/12/15 12:02:33;;;;;;;2.13;1.17;;;;;;;;;;5012715;28;20022;-64
2021/12/15 12:05:06;;;;;;;1.50;1.10;;;;;;;;;;5013621;28;20433;-66
2021/12/15 12:07:38;;;;;;;2.38;1.10;;;;;;;;;;5012357;28;20044;-70
2021/12/15 12:10:09;;;;;;;2.22;1.20;;;;;;;;;;5013174;28;20026;-64
2021/12/15 12:12:47;;;;;;;1.67;0.98;;;;;;;;;;5013077;28;20049;-65
2021/12/15 12:15:17;;;;;;;3.05;1.25;;;;;;;;;;5013643;28;20141;-65
2021/12/15 12:17:44;;;;;;;2.35;1.08;;;;;;;;;;5010021;28;20030;-65
2021/12/15 12:20:19;;;;;;;1.67;0.80;;;;;;;;;;5013970;28;20034;-65
2021/12/15 12:22:46;;;;;;;2.38;0.90;;;;;;;;;;5013448;28;20030;-64
2021/12/15 12:25:17;;;;;;;3.17;0.98;;;;;;;;;;5013574;28;20475;-65
2021/12/15 12:27:43;;;;;;;2.60;1.00;;;;;;;;;;5013049;28;20577;-65
2021/12/15 12:30:12;;;;;;;0.88;0.80;;;;;;;;;;5013494;28;20038;-65
2021/12/15 12:32:39;;;;;;;2.97;1.10;;;;;;;;;;5012671;28;20053;-64
2021/12/15 12:35:08;;;;;;;5.25;1.05;;;;;;;;;;5013982;28;20442;-65
2021/12/15 12:37:34;;;;;;;2.53;1.58;;;;;;;;;;5012689;28;20022;-62
2021/12/15 12:40:08;;;;;;;1.90;1.17;;;;;;;;;;5012866;28;20096;-65
2021/12/15 12:42:38;;;;;;;1.40;1.05;;;;;;;;;;5013047;28;20129;-64
2021/12/15 12:45:10;;;;;;;1.77;0.80;;;;;;;;;;5013289;28;20109;-65
2021/12/15 12:47:43;;;;;;;1.25;0.70;;;;;;;;;;5012773;28;20426;-64
2021/12/15 12:50:49;;;;;;;2.25;0.80;;;;;;;;;;5013436;28;20030;-64
2021/12/15 12:57:58;;;;;;;3.40;0.65;;;;;;;;;;5012476;28;20363;-64
2021/12/15 13:01:36;;;;;;;1.60;0.90;;;;;;;;;;5010901;28;20041;-63
2021/12/15 13:04:09;;;;;;;1.65;0.70;;;;;;;;;;5012871;28;20037;-64
2021/12/15 13:06:41;;;;;;;1.77;1.38;;;;;;;;;;5005532;28;20026;-65
2021/12/15 13:09:10;;;;;;;2.97;1.00;;;;;;;;;;5006560;28;20025;-65
2021/12/15 13:11:38;;;;;;;1.67;0.88;;;;;;;;;;5013183;28;20033;-64
2021/12/15 13:14:04;;;;;;;3.03;1.00;;;;;;;;;;5012525;28;20022;-65
2021/12/15 13:16:30;;;;;;;0.98;0.80;;;;;;;;;;5012554;28;20057;-64
2021/12/15 13:18:58;;;;;;;3.25;1.17;;;;;;;;;;5011241;28;20029;-64
2021/12/15 13:21:43;;;;;;;1.98;0.80;;;;;;;;;;5012276;28;20226;-64
2021/12/15 13:28:40;;;;;;;1.38;0.90;;;;;;;;;;5012687;28;20121;-65
2021/12/15 13:30:02;;;;;;;1.23;0.88;;;;;;;;;;5011825;28;20073;-64
2021/12/15 13:32:31;;;;;;;1.23;0.80;;;;;;;;;;5011985;28;20367;-65
2021/12/15 13:34:57;;;;;;;2.42;1.00;;;;;;;;;;5011089;28;20022;-64
2021/12/15 13:37:42;;;;;;;3.08;0.55;;;;;;;;;;5011554;28;20021;-64
2021/12/15 13:40:11;;;;;;;1.38;0.95;;;;;;;;;;5011812;28;20060;-65
2021/12/15 13:42:50;;;;;;;1.42;0.90;;;;;;;;;;5011406;28;20113;-64
2021/12/15 13:45:45;;;;;;;1.95;0.60;;;;;;;;;;5011994;28;20029;-64
2021/12/15 13:48:11;;;;;;;0.80;0.70;;;;;;;;;;4999086;28;20037;-64
2021/12/15 13:50:45;;;;;;;2.08;0.60;;;;;;;;;;5011226;28;20030;-64
2021/12/15 13:53:13;;;;;;;1.70;0.73;;;;;;;;;;5010268;28;20038;-64
2021/12/15 13:55:40;;;;;;;2.42;1.15;;;;;;;;;;5011006;28;20029;-64
2021/12/15 13:58:14;;;;;;;1.23;0.85;;;;;;;;;;5012363;28;20111;-64
2021/12/15 14:00:45;;;;;;;1.63;0.52;;;;;;;;;;5010155;28;20030;-65
2021/12/15 14:03:12;;;;;;;1.48;1.02;;;;;;;;;;5012784;28;20048;-65
2021/12/15 14:05:44;;;;;;;1.35;0.60;;;;;;;;;;5010792;28;20049;-66
2021/12/15 14:08:26;;;;;;;1.77;0.88;;;;;;;;;;5011768;28;20026;-66
2021/12/15 14:11:01;;;;;;;3.80;0.98;;;;;;;;;;5010756;28;20048;-66
2021/12/15 14:13:41;;;;;;;1.73;0.80;;;;;;;;;;5006388;28;20120;-66
2021/12/15 14:16:08;;;;;;;2.30;0.88;;;;;;;;;;5008872;28;20033;-66
2021/12/15 14:18:34;;;;;;;3.20;0.70;;;;;;;;;;5004778;28;20087;-61
2021/12/15 14:21:12;;;;;;;0.68;0.65;;;;;;;;;;5007330;28;20527;-66
2021/12/15 14:23:38;;;;;;;1.08;0.52;;;;;;;;;;5009079;28;20029;-66
2021/12/15 14:26:06;;;;;;;1.30;0.80;;;;;;;;;;5012194;28;20030;-66
2021/12/15 14:28:34;;;;;;;2.65;1.02;;;;;;;;;;5011573;28;20033;-65
2021/12/15 14:31:11;;;;;;;2.10;1.13;;;;;;;;;;5013502;28;20022;-66
2021/12/15 14:33:39;;;;;;;1.15;0.70;;;;;;;;;;5015048;28;20092;-67
2021/12/15 14:36:12;;;;;;;1.52;0.60;;;;;;;;;;5015602;28;20040;-67
2021/12/15 14:38:40;;;;;;;2.15;1.15;;;;;;;;;;5015377;28;20026;-67
2021/12/15 14:41:29;;;;;;;0.95;0.80;;;;;;;;;;5015719;28;20022;-67
2021/12/15 14:43:57;;;;;;;1.75;0.68;;;;;;;;;;5014498;28;20377;-67
2021/12/15 14:46:43;;;;;;;3.85;0.90;;;;;;;;;;5014661;28;20026;-66
2021/12/15 14:49:20;;;;;;;4.57;0.80;;;;;;;;;;5014665;28;20101;-65
2021/12/15 14:51:48;;;;;;;2.58;0.70;;;;;;;;;;5014133;28;20061;-66
2021/12/15 14:54:16;;;;;;;1.75;0.70;;;;;;;;;;5014884;28;20037;-66
2021/12/15 14:56:42;;;;;;;1.45;0.70;;;;;;;;;;5013864;28;20097;-65
2021/12/15 14:59:08;;;;;;;1.38;0.90;;;;;;;;;;5013959;28;20467;-65
2021/12/15 15:01:35;;;;;;;3.22;0.80;;;;;;;;;;5013613;28;20053;-63
2021/12/15 15:04:03;;;;;;;1.38;0.73;;;;;;;;;;5015198;28;20040;-65
2021/12/15 15:06:29;;;;;;;1.50;1.02;;;;;;;;;;5012140;28;20026;-64
2021/12/15 15:09:08;;;;;;;1.90;0.70;;;;;;;;;;5013729;28;20034;-64
2021/12/15 15:11:34;;;;;;;2.00;0.95;;;;;;;;;;5013839;28;20085;-66
2021/12/15 15:14:00;;;;;;;1.92;0.70;;;;;;;;;;5015155;28;20077;-64
2021/12/15 15:16:33;;;;;;;2.35;0.90;;;;;;;;;;5015084;28;20483;-63
2021/12/15 15:19:05;;;;;;;2.65;0.98;;;;;;;;;;5014491;28;20017;-66
2021/12/15 15:21:32;;;;;;;1.33;0.80;;;;;;;;;;5015153;28;20037;-64
2021/12/15 15:23:59;;;;;;;2.58;0.95;;;;;;;;;;5015148;28;20026;-68
2021/12/15 15:26:28;;;;;;;3.50;1.45;;;;;;;;;;5014499;28;20068;-62
2021/12/15 15:28:54;;;;;;;1.25;0.80;;;;;;;;;;5014060;28;20034;-62
2021/12/15 15:31:25;;;;;;;1.25;0.80;;;;;;;;;;5014758;28;20129;-66
2021/12/15 15:33:51;;;;;;;2.50;0.70;;;;;;;;;;5014296;28;20101;-66
2021/12/15 15:36:27;;;;;;;2.20;1.30;;;;;;;;;;5011340;28;20497;-65
2021/12/15 15:38:53;;;;;;;4.50;0.80;;;;;;;;;;5011528;28;20097;-65
2021/12/15 15:41:24;;;;;;;8.65;0.90;;;;;;;;;;5014493;28;20432;-66
2021/12/15 15:43:57;;;;;;;1.60;0.80;;;;;;;;;;5009666;28;20026;-66
2021/12/15 15:46:28;;;;;;;5.68;0.95;;;;;;;;;;5013605;28;20018;-65
2021/12/15 15:48:54;;;;;;;5.43;1.25;;;;;;;;;;5014449;28;20483;-64
2021/12/15 15:51:20;;;;;;;5.03;0.80;;;;;;;;;;5007737;28;20038;-67
2021/12/15 15:53:54;;;;;;;2.90;0.70;;;;;;;;;;5003759;28;20518;-68
2021/12/15 15:56:22;;;;;;;6.38;1.33;;;;;;;;;;5003828;28;20046;-70
2021/12/15 15:58:50;;;;;;;3.53;1.27;;;;;;;;;;5002122;28;20038;-68
2021/12/15 16:01:17;;;;;;;3.13;1.15;;;;;;;;;;5014124;28;20026;-67
2021/12/15 16:03:43;;;;;;;6.13;0.80;;;;;;;;;;5013632;28;20109;-67
2021/12/15 16:06:10;;;;;;;2.63;0.80;;;;;;;;;;5013162;28;20030;-65
2021/12/15 16:08:38;;;;;;;4.93;0.90;;;;;;;;;;5013208;28;20022;-68
2021/12/15 16:11:06;;;;;;;4.25;1.00;;;;;;;;;;5013459;28;20545;-69
2021/12/15 16:13:40;;;;;;;2.05;1.25;;;;;;;;;;5014046;28;20018;-68